Time;durP1;ratioP1;P1;durP2;ratioP2;P2;SDS_P1;SDS_P2;PMS_P1;PMS_P2;Temp;Humidity;BMP_temperature;BMP_pressure;BME280_temperature;BME280_humidity;BME280_pressure;Samples;Min_cycle;Max_cycle;Signal;HPM_P1;HPM_P2
2022/12/02 06:56:17;;;;;;;48.25;32.60;;;;;;;-2.13;99.37;98986.78;1861505;77;20978;-60
2022/12/02 06:59:03;;;;;;;35.88;25.20;;;;;;;-2.10;99.36;98983.80;1852995;77;21183;-64
2022/12/02 07:01:40;;;;;;;29.80;22.80;;;;;;;-2.03;99.51;98980.73;1860585;77;21433;-60
2022/12/02 07:04:21;;;;;;;27.67;20.62;;;;;;;-1.93;99.45;98979.13;1850224;77;21467;-60
2022/12/02 07:06:51;;;;;;;33.20;22.73;;;;;;;-1.84;99.43;98984.06;1838776;77;20887;-60
2022/12/02 07:09:39;;;;;;;32.13;22.35;;;;;;;-1.73;99.47;98974.86;1842187;77;21293;-63
2022/12/02 07:12:23;;;;;;;27.65;20.77;;;;;;;-1.65;99.04;98983.41;1847549;77;21115;-64
2022/12/02 07:14:57;;;;;;;30.37;21.85;;;;;;;-1.57;98.94;98989.05;1825466;78;20896;-63
2022/12/02 07:17:32;;;;;;;32.78;23.27;;;;;;;-1.49;98.78;98983.17;1829959;77;20918;-61
2022/12/02 07:20:17;;;;;;;33.75;22.40;;;;;;;-1.44;98.57;98993.91;1827685;78;20916;-64
2022/12/02 07:22:47;;;;;;;33.23;23.12;;;;;;;-1.37;98.36;98990.54;1824026;78;20983;-64
2022/12/02 07:25:38;;;;;;;28.67;21.70;;;;;;;-1.30;98.29;98996.17;1827957;78;21231;-63
2022/12/02 07:28:37;;;;;;;32.63;23.40;;;;;;;-1.24;98.01;98995.39;1827431;78;21430;-62
2022/12/02 07:31:24;;;;;;;33.08;22.73;;;;;;;-1.22;97.76;98996.50;1829091;77;21669;-61
2022/12/02 07:33:51;;;;;;;31.35;23.18;;;;;;;-1.18;97.47;98999.91;1843183;77;20997;-63
2022/12/02 07:36:18;;;;;;;35.98;23.62;;;;;;;-1.13;97.53;98994.86;1826206;78;20911;-61
2022/12/02 07:38:44;;;;;;;36.25;22.42;;;;;;;-1.10;97.30;98997.11;1825951;78;21885;-61
2022/12/02 07:41:12;;;;;;;35.78;21.90;;;;;;;-1.09;97.18;98992.67;1828470;77;20915;-62
2022/12/02 07:43:39;;;;;;;33.33;22.48;;;;;;;-1.06;96.86;98993.61;1831731;77;20954;-62
2022/12/02 07:46:06;;;;;;;31.85;22.45;;;;;;;-1.07;96.60;98990.66;1845991;77;20927;-62
2022/12/02 07:48:33;;;;;;;31.93;22.60;;;;;;;-1.08;96.51;98986.39;1861386;77;20911;-61
2022/12/02 07:51:00;;;;;;;32.75;22.67;;;;;;;-1.06;96.32;98997.56;1851629;77;21403;-63
2022/12/02 07:53:28;;;;;;;33.35;22.25;;;;;;;-1.04;96.12;98993.73;1838673;77;20988;-60
2022/12/02 07:56:02;;;;;;;31.20;22.45;;;;;;;-1.06;95.89;99002.29;1815920;77;20876;-60
2022/12/02 07:58:35;;;;;;;32.88;23.18;;;;;;;-1.05;95.90;98997.85;1810129;77;21030;-64
2022/12/02 08:01:02;;;;;;;31.68;22.90;;;;;;;-1.00;96.00;99008.12;1784386;79;20991;-60
2022/12/02 08:03:29;;;;;;;30.65;21.82;;;;;;;-0.94;95.90;99003.89;1772411;79;21255;-63
2022/12/02 08:05:56;;;;;;;27.65;20.90;;;;;;;-0.90;95.82;99003.84;1760412;81;20971;-61
2022/12/02 08:08:24;;;;;;;25.40;19.42;;;;;;;-0.90;95.55;98999.89;1764321;80;21051;-60
2022/12/02 08:10:51;;;;;;;30.92;21.73;;;;;;;-0.93;95.33;99009.47;1774372;80;20983;-61
2022/12/02 08:13:17;;;;;;;27.40;19.85;;;;;;;-0.89;95.41;99004.13;1732135;81;21043;-59
2022/12/02 08:15:44;;;;;;;26.77;20.52;;;;;;;-0.84;95.41;99001.73;1841751;77;21287;-60
2022/12/02 08:18:11;;;;;;;32.48;21.17;;;;;;;-0.80;95.21;99008.26;1846244;77;21097;-60
2022/12/02 08:20:39;;;;;;;28.27;21.27;;;;;;;-0.77;95.14;99003.91;1820908;77;20873;-61
2022/12/02 08:23:13;;;;;;;32.50;22.25;;;;;;;-0.74;94.95;99002.21;1740958;80;21136;-61
2022/12/02 08:25:40;;;;;;;29.25;20.32;;;;;;;-0.72;94.83;99006.77;1739483;81;20885;-61
2022/12/02 08:30:43;;;;;;;30.08;20.35;;;;;;;-0.61;94.60;99001.48;1852131;76;28050;-58
2022/12/02 08:33:24;;;;;;;30.90;20.25;;;;;;;-0.57;94.64;99007.48;1838202;77;20902;-59
2022/12/02 08:35:54;;;;;;;31.20;20.50;;;;;;;-0.52;94.56;99003.76;1762752;77;21517;-58
2022/12/02 08:38:27;;;;;;;25.23;18.77;;;;;;;-0.45;94.50;99001.97;1829974;75;21453;-62
2022/12/02 08:40:54;;;;;;;26.33;19.62;;;;;;;-0.37;94.10;99007.05;1846754;76;21000;-59
2022/12/02 08:43:20;;;;;;;29.00;19.65;;;;;;;-0.30;93.98;99001.81;1839983;76;20887;-59
2022/12/02 08:45:47;;;;;;;30.92;20.55;;;;;;;-0.29;93.63;99012.16;1843188;77;20876;-60
2022/12/02 08:48:14;;;;;;;28.77;20.45;;;;;;;-0.25;93.47;99009.94;1842923;77;21120;-59
2022/12/02 08:50:41;;;;;;;32.70;20.72;;;;;;;-0.25;93.03;99009.44;1819560;79;20906;-61
2022/12/02 08:53:07;;;;;;;28.73;20.45;;;;;;;-0.29;92.89;99011.34;1828854;76;20903;-58
2022/12/02 08:55:34;;;;;;;30.32;21.02;;;;;;;-0.30;92.88;99004.45;1847682;76;20973;-59
2022/12/02 08:58:01;;;;;;;30.27;19.92;;;;;;;-0.23;92.78;99002.15;1827385;75;20954;-60
2022/12/02 09:00:27;;;;;;;31.77;20.25;;;;;;;-0.19;92.56;99011.80;1892503;75;21109;-60
2022/12/02 09:02:54;;;;;;;27.48;20.20;;;;;;;-0.16;92.45;99002.17;1839794;76;21081;-63
2022/12/02 09:05:21;;;;;;;27.27;20.95;;;;;;;-0.15;92.25;99001.99;1828920;77;21176;-64
2022/12/02 09:07:51;;;;;;;27.50;20.17;;;;;;;-0.13;92.12;99003.92;1825976;76;21528;-60
2022/12/02 09:10:18;;;;;;;29.25;21.17;;;;;;;-0.13;91.99;98997.33;1838132;76;21125;-60
2022/12/02 09:12:45;;;;;;;27.10;20.50;;;;;;;-0.09;91.99;98994.60;1853796;76;21050;-62
2022/12/02 09:15:12;;;;;;;28.00;20.20;;;;;;;-0.07;91.82;98984.67;1830840;77;20969;-61
2022/12/02 09:17:38;;;;;;;30.50;22.05;;;;;;;-0.08;91.71;98987.52;1832696;77;20950;-61
2022/12/02 09:20:06;;;;;;;28.38;21.17;;;;;;;-0.09;91.50;98988.02;1819155;79;20915;-63
2022/12/02 09:22:33;;;;;;;29.52;21.62;;;;;;;-0.14;91.14;98998.83;1818926;78;20856;-69
2022/12/02 09:24:59;;;;;;;33.92;24.55;;;;;;;-0.26;91.01;98989.38;1835828;77;22006;-63
2022/12/02 09:27:26;;;;;;;56.35;32.42;;;;;;;-0.35;91.25;98995.82;1846327;77;20966;-63
2022/12/02 09:29:53;;;;;;;52.15;29.85;;;;;;;-0.35;91.54;98989.23;1821079;75;21244;-64
2022/12/02 09:32:20;;;;;;;44.33;28.35;;;;;;;-0.25;91.81;98987.55;1808512;78;20880;-62
2022/12/02 09:34:46;;;;;;;40.78;24.95;;;;;;;-0.17;91.86;98988.21;1811881;78;21046;-60
2022/12/02 09:37:16;;;;;;;40.35;26.25;;;;;;;-0.09;91.88;98985.88;1808435;78;21291;-62
2022/12/02 09:39:44;;;;;;;38.67;24.90;;;;;;;-0.04;91.73;98986.92;1808478;79;21532;-61
2022/12/02 09:42:12;;;;;;;36.53;25.27;;;;;;;0.02;91.69;98987.14;1807611;78;20911;-62
2022/12/02 09:44:38;;;;;;;32.58;23.27;;;;;;;0.05;91.46;98990.70;1809964;78;20995;-62
2022/12/02 09:47:05;;;;;;;41.40;25.60;;;;;;;0.08;91.32;98988.97;1799169;79;20977;-61
2022/12/02 09:49:32;;;;;;;38.95;25.32;;;;;;;0.05;91.25;98988.08;1812654;78;21117;-63
2022/12/02 09:52:00;;;;;;;36.73;25.12;;;;;;;0.09;91.11;98980.07;1839530;76;20903;-63
2022/12/02 09:54:27;;;;;;;37.75;25.00;;;;;;;0.07;91.00;98976.83;1829392;76;20935;-63
2022/12/02 09:56:53;;;;;;;38.53;24.35;;;;;;;0.12;91.05;98974.41;1822840;76;21396;-64
2022/12/02 09:59:21;;;;;;;37.03;25.27;;;;;;;0.16;91.01;98973.81;1811179;78;21096;-60
2022/12/02 10:01:48;;;;;;;32.73;23.42;;;;;;;0.23;90.96;98976.45;1824000;78;21805;-63
2022/12/02 10:04:19;;;;;;;35.00;24.57;;;;;;;0.32;90.96;98968.66;1822726;77;21474;-57
2022/12/02 10:06:46;;;;;;;38.50;23.25;;;;;;;0.39;90.75;98968.16;1828382;76;21001;-60
2022/12/02 10:09:21;;;;;;;38.08;24.27;;;;;;;0.42;90.59;98970.40;1844839;76;21035;-60
2022/12/02 10:11:51;;;;;;;36.58;23.27;;;;;;;0.41;90.28;98966.94;1808630;78;21019;-60
2022/12/02 10:14:19;;;;;;;36.98;23.12;;;;;;;0.39;90.33;98966.34;1817200;78;21386;-58
2022/12/02 10:16:46;;;;;;;37.63;24.90;;;;;;;0.35;90.10;98967.77;1815540;78;20915;-58
2022/12/02 10:19:17;;;;;;;38.02;23.57;;;;;;;0.32;89.99;98963.38;1834362;76;20911;-60
2022/12/02 10:21:45;;;;;;;41.15;25.48;;;;;;;0.31;90.09;98955.16;1808215;79;21536;-60
2022/12/02 10:24:13;;;;;;;42.00;26.75;;;;;;;0.36;90.19;98956.19;1808062;79;21010;-58
2022/12/02 10:26:52;;;;;;;38.75;23.32;;;;;;;0.43;90.41;98957.00;1807753;79;22056;-62
2022/12/02 10:29:30;;;;;;;34.58;22.15;;;;;;;0.51;90.19;98959.95;1818245;78;20962;-60
2022/12/02 10:32:06;;;;;;;34.45;22.75;;;;;;;0.58;89.91;98948.90;1807698;79;20892;-62
2022/12/02 10:34:35;;;;;;;31.70;22.35;;;;;;;0.60;89.84;98946.87;1807761;79;20884;-68
2022/12/02 10:37:23;;;;;;;35.90;20.50;;;;;;;0.66;89.82;98946.05;1807524;79;20860;-61
2022/12/02 10:40:15;;;;;;;38.55;21.97;;;;;;;0.69;89.67;98950.92;1808218;79;21760;-58
2022/12/02 10:42:44;;;;;;;37.25;23.95;;;;;;;0.60;89.45;98945.05;1807833;79;20828;-58
2022/12/02 10:45:24;;;;;;;37.40;23.90;;;;;;;0.62;89.35;98948.29;1784171;79;20820;-59
2022/12/02 10:47:58;;;;;;;38.48;24.43;;;;;;;0.61;89.27;98949.83;1807776;79;20836;-59
2022/12/02 10:50:26;;;;;;;34.30;22.55;;;;;;;0.62;89.31;98952.75;1801233;79;20919;-63
2022/12/02 10:52:57;;;;;;;39.18;22.87;;;;;;;0.61;89.12;98951.14;1815315;78;21116;-59
2022/12/02 10:55:24;;;;;;;34.00;24.25;;;;;;;0.59;89.19;98953.14;1814484;77;20963;-58
2022/12/02 10:57:51;;;;;;;40.65;25.05;;;;;;;0.60;89.26;98950.83;1796182;80;21393;-59
2022/12/02 11:00:21;;;;;;;35.65;23.30;;;;;;;0.63;89.41;98947.79;1818600;78;20989;-60
2022/12/02 11:02:53;;;;;;;35.65;23.35;;;;;;;0.62;89.17;98944.34;1820100;76;20955;-60
2022/12/02 11:05:30;;;;;;;37.73;24.47;;;;;;;0.52;89.05;98939.97;1768933;80;21246;-60
2022/12/02 11:08:16;;;;;;;41.20;24.60;;;;;;;0.53;89.46;98942.92;1764739;81;20964;-60
2022/12/02 11:10:45;;;;;;;;;;;;;;;0.54;89.17;98942.42;1744932;81;21407;-59
2022/12/02 11:13:29;;;;;;;44.00;24.23;;;;;;;0.56;89.50;98939.07;1756679;81;20107;-60
2022/12/02 11:16:29;;;;;;;38.50;24.50;;;;;;;0.56;89.29;98940.39;1767705;78;21526;-60
2022/12/02 11:19:25;;;;;;;36.80;22.80;;;;;;;0.56;89.29;98940.39;1747834;81;21401;-60
2022/12/02 11:21:52;;;;;;;36.23;24.57;;;;;;;0.60;89.57;98938.95;1789515;78;21385;-59
2022/12/02 11:24:28;;;;;;;41.53;23.95;;;;;;;0.63;89.47;98935.92;1778456;80;21099;-59
2022/12/02 11:27:05;;;;;;;40.03;24.27;;;;;;;0.63;89.40;98939.88;1771007;78;21488;-59
2022/12/02 11:29:41;;;;;;;34.83;24.02;;;;;;;0.68;89.43;98928.22;1759537;80;20870;-59
2022/12/02 11:32:37;;;;;;;38.88;24.92;;;;;;;0.66;89.13;98933.67;1778197;79;21190;-59
2022/12/02 11:35:14;;;;;;;35.92;24.35;;;;;;;0.60;89.06;98929.23;1784676;80;21450;-60
2022/12/02 11:37:44;;;;;;;38.23;24.05;;;;;;;0.63;89.14;98918.78;1780850;79;20909;-61
2022/12/02 11:40:19;;;;;;;41.35;25.25;;;;;;;0.63;89.07;98926.20;1757423;80;20889;-61
2022/12/02 11:42:45;;;;;;;37.40;23.98;;;;;;;0.69;89.26;98927.19;1752391;80;21000;-60
2022/12/02 11:45:20;;;;;;;33.85;23.32;;;;;;;0.74;89.17;98930.02;1747768;81;21245;-58
2022/12/02 11:47:59;;;;;;;40.35;24.80;;;;;;;0.79;88.89;98930.23;1771688;78;20935;-60
2022/12/02 11:50:40;;;;;;;38.25;23.83;;;;;;;0.74;88.69;98926.07;1781659;80;20920;-59
2022/12/02 11:53:26;;;;;;;37.75;22.60;;;;;;;0.75;88.94;98926.38;1773047;80;20948;-59
2022/12/02 11:55:54;;;;;;;41.75;23.10;;;;;;;0.74;88.62;98928.70;1763989;80;21031;-62
2022/12/02 11:58:34;;;;;;;37.63;21.60;;;;;;;0.63;88.46;98931.47;1776095;78;21191;-60
2022/12/02 12:01:14;;;;;;;36.63;23.57;;;;;;;0.60;88.66;98929.73;1756948;78;21836;-59
2022/12/02 12:03:44;;;;;;;35.00;23.30;;;;;;;0.59;88.74;98929.41;1762031;80;20980;-63
2022/12/02 12:06:22;;;;;;;38.85;23.22;;;;;;;0.58;88.79;98929.95;1760375;80;20877;-60
2022/12/02 12:08:53;;;;;;;38.02;23.60;;;;;;;0.55;88.91;98925.58;1772540;78;20897;-64
2022/12/02 12:11:28;;;;;;;36.50;22.37;;;;;;;0.56;89.09;98932.48;1775123;80;21143;-61
2022/12/02 12:14:12;;;;;;;38.05;23.18;;;;;;;0.59;89.05;98929.41;1769759;79;21446;-61
2022/12/02 12:16:43;;;;;;;38.98;23.25;;;;;;;0.59;88.79;98932.87;1774079;80;20964;-59
2022/12/02 12:19:18;;;;;;;38.90;24.92;;;;;;;0.58;89.05;98927.81;1772930;79;21521;-58
2022/12/02 12:21:51;;;;;;;35.90;25.23;;;;;;;0.57;89.15;98927.49;1778417;80;21062;-64
2022/12/02 12:24:23;;;;;;;39.33;26.10;;;;;;;0.51;89.01;98926.50;1778377;80;21240;-62
2022/12/02 12:27:03;;;;;;;38.73;24.98;;;;;;;0.50;89.20;98924.05;1757227;80;20881;-64
2022/12/02 12:29:33;;;;;;;42.50;27.98;;;;;;;0.54;89.22;98924.75;1777225;80;21018;-62
2022/12/02 12:32:00;;;;;;;35.98;24.85;;;;;;;0.52;88.85;98919.37;1776987;80;20936;-61
2022/12/02 12:34:30;;;;;;;44.40;27.75;;;;;;;0.45;89.03;98925.16;1780437;80;21038;-63
2022/12/02 12:36:57;;;;;;;38.50;24.40;;;;;;;0.46;89.22;98926.80;1743921;81;21136;-62
2022/12/02 12:39:24;;;;;;;41.28;26.30;;;;;;;0.46;88.99;98926.80;1788397;80;21302;-67
2022/12/02 12:41:50;;;;;;;38.53;23.77;;;;;;;0.37;88.93;98925.38;1777399;79;21213;-63
2022/12/02 12:44:17;;;;;;;37.33;24.70;;;;;;;0.28;88.95;98926.59;1753211;81;20969;-65
2022/12/02 12:46:44;;;;;;;39.25;24.77;;;;;;;0.25;89.19;98926.49;1754264;80;21493;-65
2022/12/02 12:49:11;;;;;;;39.92;25.08;;;;;;;0.28;89.44;98927.91;1760252;80;21113;-60
2022/12/02 12:51:37;;;;;;;36.20;24.20;;;;;;;0.32;89.61;98934.39;1764638;80;20966;-60
2022/12/02 12:54:04;;;;;;;35.88;23.60;;;;;;;0.33;89.47;98932.08;1805963;79;20942;-62
2022/12/02 12:56:31;;;;;;;34.67;22.37;;;;;;;0.32;89.47;98937.03;1782753;80;21101;-67
2022/12/02 12:58:57;;;;;;;35.33;22.75;;;;;;;0.30;89.49;98935.92;1753204;81;21014;-66
2022/12/02 13:01:24;;;;;;;34.03;23.35;;;;;;;0.32;89.57;98937.84;1754099;81;21242;-64
2022/12/02 13:03:53;;;;;;;33.60;23.52;;;;;;;0.34;89.62;98938.95;1753799;81;20926;-61
2022/12/02 13:06:21;;;;;;;37.00;24.35;;;;;;;0.33;89.53;98939.45;1753722;81;21425;-65
2022/12/02 13:08:49;;;;;;;34.18;23.52;;;;;;;0.32;89.62;98938.34;1754162;81;20971;-69
2022/12/02 13:11:19;;;;;;;32.63;23.52;;;;;;;0.31;89.68;98938.03;1754201;81;20934;-62
2022/12/02 13:13:46;;;;;;;44.70;32.80;;;;;;;0.33;89.80;98935.50;1753707;81;21120;-62
2022/12/02 13:16:12;;;;;;;33.15;22.17;;;;;;;0.34;89.72;98947.67;1794028;79;21010;-63
2022/12/02 13:18:39;;;;;;;37.28;25.57;;;;;;;0.35;89.54;98948.49;1817372;79;20841;-65
2022/12/02 13:21:06;;;;;;;36.42;24.35;;;;;;;0.31;89.56;98949.89;1817450;79;20971;-61
2022/12/02 13:23:32;;;;;;;33.23;22.62;;;;;;;0.30;89.73;98945.65;1817287;79;20873;-59
2022/12/02 13:25:59;;;;;;;33.50;23.35;;;;;;;0.28;89.71;98951.63;1816684;79;21994;-57
2022/12/02 13:28:25;;;;;;;32.88;20.82;;;;;;;0.25;89.74;98950.70;1816498;79;20963;-60
2022/12/02 13:30:53;;;;;;;34.27;22.32;;;;;;;0.23;89.77;98955.38;1816994;78;20920;-71
2022/12/02 13:33:21;;;;;;;34.35;22.22;;;;;;;0.21;89.71;98955.58;1811926;79;20857;-68
2022/12/02 13:35:47;;;;;;;37.30;22.67;;;;;;;0.21;89.90;98949.49;1812075;79;20932;-65
2022/12/02 13:38:15;;;;;;;34.75;21.30;;;;;;;0.24;89.95;98959.61;1764378;79;21226;-62
2022/12/02 13:40:42;;;;;;;30.75;20.90;;;;;;;0.24;89.88;98954.34;1747747;82;21030;-60
2022/12/02 13:43:09;;;;;;;28.70;20.00;;;;;;;0.19;89.80;98953.62;1748497;81;20922;-69
2022/12/02 13:45:38;;;;;;;28.12;20.52;;;;;;;0.14;89.65;98951.31;1749194;82;20944;-59
2022/12/02 13:48:05;;;;;;;32.00;21.68;;;;;;;0.04;89.67;98957.46;1757303;80;21017;-66
2022/12/02 13:50:32;;;;;;;31.68;21.37;;;;;;;-0.03;89.77;98957.45;1817713;79;21094;-71
2022/12/02 13:52:59;;;;;;;30.30;21.60;;;;;;;-0.07;89.97;98957.02;1816599;79;21105;-64
2022/12/02 13:55:26;;;;;;;30.17;21.75;;;;;;;-0.11;90.11;98961.57;1785530;79;21494;-65
2022/12/02 13:57:53;;;;;;;34.30;23.07;;;;;;;-0.07;90.30;98966.23;1816760;79;21162;-64
2022/12/02 14:00:20;;;;;;;33.65;22.62;;;;;;;-0.08;90.29;98959.38;1760892;79;21056;-58
2022/12/02 14:02:46;;;;;;;31.30;22.67;;;;;;;-0.06;90.38;98967.06;1791657;77;21241;-64
2022/12/02 14:05:13;;;;;;;31.25;22.05;;;;;;;-0.08;90.44;98967.27;1786556;79;20872;-57
2022/12/02 14:07:41;;;;;;;34.43;23.02;;;;;;;-0.12;90.45;98963.39;1783726;79;20940;-58
2022/12/02 14:10:10;;;;;;;36.68;22.62;;;;;;;-0.15;90.52;98973.02;1784032;79;20971;-62
2022/12/02 14:12:38;;;;;;;29.37;21.15;;;;;;;-0.13;90.75;98973.63;1816340;78;20959;-60
2022/12/02 14:15:06;;;;;;;34.27;22.35;;;;;;;-0.13;90.60;98969.69;1816459;79;21229;-60
2022/12/02 14:17:33;;;;;;;33.20;21.02;;;;;;;-0.10;90.71;98970.61;1816382;79;20833;-61
2022/12/02 14:20:00;;;;;;;30.85;21.37;;;;;;;-0.08;90.60;98977.80;1816472;78;20880;-62
2022/12/02 14:22:26;;;;;;;33.00;21.37;;;;;;;-0.14;90.41;98973.31;1816366;78;20923;-66
2022/12/02 14:24:53;;;;;;;33.13;22.20;;;;;;;-0.19;90.53;98970.45;1816373;79;20904;-62
2022/12/02 14:27:20;;;;;;;32.42;20.72;;;;;;;-0.16;90.69;98978.47;1816425;79;21930;-57
2022/12/02 14:29:46;;;;;;;30.23;21.07;;;;;;;-0.14;90.59;98979.08;1814218;79;21021;-66
2022/12/02 14:32:14;;;;;;;28.47;20.30;;;;;;;-0.13;90.64;98977.58;1831644;77;20927;-56
2022/12/02 14:34:41;;;;;;;30.80;21.25;;;;;;;-0.14;90.49;98974.63;1852409;77;20836;-59
2022/12/02 14:37:07;;;;;;;32.53;21.48;;;;;;;-0.15;90.59;98973.02;1852428;77;20911;-66
2022/12/02 14:39:34;;;;;;;30.40;22.07;;;;;;;-0.16;90.52;98972.70;1852329;77;21591;-64
2022/12/02 14:42:01;;;;;;;31.95;22.65;;;;;;;-0.17;90.50;98971.09;1852371;77;21339;-67
2022/12/02 14:44:28;;;;;;;31.77;22.25;;;;;;;-0.22;90.46;98970.88;1852442;77;20942;-60
2022/12/02 14:46:58;;;;;;;33.18;21.30;;;;;;;-0.23;90.74;98969.23;1852411;77;20867;-60
2022/12/02 14:49:24;;;;;;;31.15;21.10;;;;;;;-0.19;90.93;98966.51;1852297;77;20907;-61
2022/12/02 14:51:51;;;;;;;33.10;20.60;;;;;;;-0.13;90.84;98972.31;1852534;77;21111;-60
2022/12/02 14:54:17;;;;;;;32.08;21.75;;;;;;;-0.14;90.89;98968.05;1845796;77;21443;-61
2022/12/02 14:56:44;;;;;;;27.22;19.55;;;;;;;-0.16;90.75;98964.80;1834778;78;21092;-61
2022/12/02 14:59:10;;;;;;;29.42;21.35;;;;;;;-0.17;90.84;98963.20;1835648;78;21292;-65
2022/12/02 15:01:37;;;;;;;33.13;21.45;;;;;;;-0.18;90.91;98969.46;1835636;78;21464;-67
2022/12/02 15:04:04;;;;;;;32.63;20.48;;;;;;;-0.19;90.92;98969.67;1835123;78;21105;-66
2022/12/02 15:06:31;;;;;;;30.70;21.23;;;;;;;-0.19;91.06;98967.83;1834313;78;20961;-69
2022/12/02 15:08:57;;;;;;;30.02;20.85;;;;;;;-0.18;91.08;98962.88;1834955;78;20969;-61
2022/12/02 15:11:24;;;;;;;33.25;21.87;;;;;;;-0.16;91.04;98974.02;1835911;78;21429;-60
2022/12/02 15:13:50;;;;;;;33.58;22.42;;;;;;;-0.20;91.06;98971.98;1835468;78;20862;-60
2022/12/02 15:16:17;;;;;;;30.32;20.65;;;;;;;-0.23;91.16;98977.63;1835151;78;21302;-67
2022/12/02 15:18:44;;;;;;;29.52;21.62;;;;;;;-0.27;91.26;98977.23;1835718;78;20867;-68
2022/12/02 15:21:10;;;;;;;39.80;21.75;;;;;;;-0.28;91.37;98983.49;1835956;78;21364;-60
2022/12/02 15:23:37;;;;;;;32.33;21.95;;;;;;;-0.27;91.46;98978.55;1835757;78;20957;-58
